createdAt,value
2018-01-15T00:02:11.179Z,101545.32
2018-01-15T00:07:12.483Z,101549.06
2018-01-15T00:12:14.643Z,101533.95
2018-01-15T00:17:16.079Z,101528.95
2018-01-15T00:22:18.137Z,101508.70
2018-01-15T00:27:19.522Z,101500.96
2018-01-15T00:32:20.866Z,101497.55
2018-01-15T00:37:22.175Z,101480.31
2018-01-15T00:42:23.559Z,101462.24
2018-01-15T00:47:24.975Z,101446.40
2018-01-15T00:52:26.282Z,101441.28
2018-01-15T00:57:27.687Z,101434.75
2018-01-15T01:02:29.064Z,101426.09
2018-01-15T01:07:30.390Z,101413.25
2018-01-15T01:12:31.777Z,101411.41
2018-01-15T01:17:33.128Z,101404.62
2018-01-15T01:22:34.455Z,101391.29
2018-01-15T01:27:35.793Z,101391.34
2018-01-15T01:32:37.100Z,101380.56
2018-01-15T01:37:38.418Z,101366.42
2018-01-15T01:42:39.769Z,101365.55
2018-01-15T01:47:41.077Z,101364.77
2018-01-15T01:52:42.502Z,101354.75
2018-01-15T01:57:43.834Z,101346.17
2018-01-15T02:02:45.151Z,101353.45
2018-01-15T02:07:46.446Z,101348.72
2018-01-15T02:12:47.849Z,101348.70
2018-01-15T02:17:49.929Z,101347.02
2018-01-15T02:22:51.252Z,101342.66
2018-01-15T02:27:53.355Z,101326.36
2018-01-15T02:32:54.692Z,101334.97
2018-01-15T02:37:56.025Z,101316.88
2018-01-15T02:42:57.399Z,101308.19
2018-01-15T02:47:58.717Z,101294.87
2018-01-15T02:53:00.037Z,101289.26
2018-01-15T02:58:01.363Z,101276.38
2018-01-15T03:03:02.710Z,101259.62
2018-01-15T03:08:04.038Z,101247.99
2018-01-15T03:13:05.334Z,101241.52
2018-01-15T03:18:06.678Z,101222.12
2018-01-15T03:23:08.001Z,101213.98
2018-01-15T03:28:09.328Z,101208.80
2018-01-15T03:33:10.663Z,101202.81
2018-01-15T03:38:11.985Z,101192.48
2018-01-15T03:43:13.332Z,101191.61
2018-01-15T03:48:14.655Z,101186.50
2018-01-15T03:53:16.013Z,101176.58
2018-01-15T03:58:17.338Z,101165.34
2018-01-15T04:03:18.691Z,101160.56
2018-01-15T04:08:20.044Z,101152.41
2018-01-15T04:13:21.452Z,101136.45
2018-01-15T04:18:22.746Z,101144.65
2018-01-15T04:23:24.792Z,101136.91
2018-01-15T04:28:26.116Z,101120.96
2018-01-15T04:33:27.445Z,101117.12
2018-01-15T04:38:28.795Z,101099.90
2018-01-15T04:43:30.103Z,101078.74
2018-01-15T04:48:32.177Z,101077.47
2018-01-15T04:53:33.497Z,101057.22
2018-01-15T04:58:35.551Z,101057.64
2018-01-15T05:03:36.907Z,101055.91
2018-01-15T05:08:38.283Z,101052.48
2018-01-15T05:13:40.387Z,101052.92
2018-01-15T05:18:42.487Z,101043.87
2018-01-15T05:23:43.850Z,101040.02
2018-01-15T05:28:45.199Z,101030.56
2018-01-15T05:33:46.584Z,101010.27
2018-01-15T05:38:47.919Z,101005.55
2018-01-15T05:43:49.259Z,100990.02
2018-01-15T05:48:51.303Z,100981.38
2018-01-15T05:53:52.607Z,100972.70
2018-01-15T05:58:53.958Z,100954.63
2018-01-15T06:03:55.271Z,100950.30
2018-01-15T06:08:56.597Z,100951.59
2018-01-15T06:13:57.903Z,100955.44
2018-01-15T06:18:59.959Z,100945.92
2018-01-15T06:24:01.266Z,100932.11
2018-01-15T06:29:02.608Z,100927.75
2018-01-15T06:34:03.944Z,100918.67
2018-01-15T06:39:05.250Z,100909.16
2018-01-15T06:44:06.613Z,100908.73
2018-01-15T06:49:07.949Z,100892.75
2018-01-15T06:54:10.007Z,100881.53
2018-01-15T06:59:11.333Z,100875.45
2018-01-15T07:04:13.457Z,100871.55
2018-01-15T07:09:15.547Z,100860.84
2018-01-15T07:14:16.875Z,100846.52
2018-01-15T07:19:18.187Z,100847.77
2018-01-15T07:24:19.479Z,100840.02
2018-01-15T07:29:20.779Z,100839.45
2018-01-15T07:34:22.127Z,100831.28
2018-01-15T07:39:23.450Z,100818.25
2018-01-15T07:44:24.773Z,100792.67
2018-01-15T07:49:33.835Z,100803.09
2018-01-15T07:54:35.144Z,100786.77
2018-01-15T07:59:37.520Z,100784.61
2018-01-15T08:04:38.886Z,100787.53
2018-01-15T08:09:40.197Z,100782.00
2018-01-15T08:14:41.787Z,100776.99
2018-01-15T08:19:43.112Z,100773.31
2018-01-15T08:24:45.171Z,100771.05
2018-01-15T08:29:46.489Z,100771.50
2018-01-15T08:34:47.819Z,100752.55
2018-01-15T08:39:49.123Z,100744.23
2018-01-15T08:44:50.451Z,100727.77
2018-01-15T08:49:51.788Z,100715.34
2018-01-15T08:54:53.133Z,100711.73
2018-01-15T08:59:54.443Z,100690.91
2018-01-15T09:04:56.525Z,100683.95
2018-01-15T09:09:57.841Z,100669.34
2018-01-15T09:14:59.902Z,100663.80
2018-01-15T09:20:01.223Z,100637.95
2018-01-15T09:25:02.584Z,100632.77
2018-01-15T09:30:03.943Z,100624.88
2018-01-15T09:35:06.171Z,100613.05
2018-01-15T09:40:08.047Z,100598.23
2018-01-15T09:45:09.355Z,100596.75
2018-01-15T09:50:10.700Z,100597.12
2018-01-15T09:55:12.016Z,100592.23
2018-01-15T10:00:13.313Z,100586.00
2018-01-15T10:05:14.638Z,100573.13
2018-01-15T10:10:15.985Z,100560.93
2018-01-15T10:15:17.299Z,100549.84
2018-01-15T10:20:18.640Z,100534.53
2018-01-15T10:25:20.743Z,100513.76
2018-01-15T10:30:22.072Z,100499.19
2018-01-15T10:35:23.386Z,100488.06
2018-01-15T10:40:24.703Z,100484.83
2018-01-15T10:45:26.834Z,100494.06
2018-01-15T10:50:28.211Z,100492.25
2018-01-15T10:55:30.262Z,100478.74
2018-01-15T11:00:37.727Z,100469.16
2018-01-15T11:05:39.059Z,100459.44
2018-01-15T11:10:40.428Z,100438.39
2018-01-15T11:15:42.490Z,100420.32
2018-01-15T11:20:43.789Z,100400.63
2018-01-15T11:25:45.119Z,100378.69
2018-01-15T11:30:46.399Z,100365.20
2018-01-15T11:35:50.159Z,100352.70
2018-01-15T11:40:52.155Z,100343.97
2018-01-15T11:45:54.824Z,100322.56
2018-01-15T11:50:56.467Z,100300.21
2018-01-15T11:55:57.808Z,100288.20
2018-01-15T12:00:59.139Z,100276.98
2018-01-15T12:06:00.439Z,100266.84
2018-01-15T12:11:02.537Z,100258.84
2018-01-15T12:16:03.850Z,100246.59
2018-01-15T12:21:05.935Z,100232.48
2018-01-15T12:26:08.015Z,100225.47
2018-01-15T12:31:09.343Z,100201.91
2018-01-15T12:36:11.459Z,100175.31
2018-01-15T12:41:13.715Z,100157.41
2018-01-15T12:46:18.042Z,100151.77
2018-01-15T12:51:19.355Z,100123.27
2018-01-15T12:56:20.683Z,100104.88
2018-01-15T13:01:22.052Z,100090.24
2018-01-15T13:06:41.931Z,100076.05
2018-01-15T13:11:43.263Z,100053.69
2018-01-15T13:16:44.611Z,100038.94
2018-01-15T13:21:45.919Z,100022.59
2018-01-15T13:26:47.235Z,99992.23
2018-01-15T13:31:48.584Z,99994.55
2018-01-15T13:36:54.941Z,99984.94
2018-01-15T13:41:56.300Z,99965.83
2018-01-15T13:46:57.628Z,99947.47
2018-01-15T13:51:58.940Z,99928.81
2018-01-15T13:57:00.994Z,99914.88
2018-01-15T14:02:02.303Z,99899.27
2018-01-15T14:07:03.652Z,99888.25
2018-01-15T14:12:04.989Z,99875.83
2018-01-15T14:17:06.280Z,99856.92
2018-01-15T14:22:07.626Z,99845.76
2018-01-15T14:27:08.931Z,99847.05
2018-01-15T14:32:10.244Z,99831.01
2018-01-15T14:37:12.473Z,99832.58
2018-01-15T14:42:14.536Z,99825.43
2018-01-15T14:47:15.863Z,99815.08
2018-01-15T14:52:17.196Z,99802.67
2018-01-15T14:57:18.509Z,99784.73
2018-01-15T15:02:19.884Z,99780.06
2018-01-15T15:07:21.259Z,99766.07
2018-01-15T15:12:22.660Z,99753.67
2018-01-15T15:17:23.978Z,99748.84
2018-01-15T15:22:25.375Z,99734.70
2018-01-15T15:27:26.733Z,99731.00
2018-01-15T15:32:28.147Z,99720.34
2018-01-15T15:37:29.439Z,99704.06
2018-01-15T15:42:30.768Z,99700.12
2018-01-15T15:47:37.015Z,99688.51
2018-01-15T15:52:38.335Z,99671.97
2018-01-15T15:57:39.703Z,99652.08
2018-01-15T16:02:41.048Z,99646.21
2018-01-15T16:07:42.397Z,99630.78
2018-01-15T16:12:43.720Z,99622.36
2018-01-15T16:17:45.784Z,99602.31
2018-01-15T16:22:57.295Z,99591.72
2018-01-15T16:27:58.623Z,99567.48
2018-01-15T16:32:59.955Z,99547.38
2018-01-15T16:38:01.276Z,99524.51
2018-01-15T16:43:02.643Z,99516.53
2018-01-15T16:48:03.986Z,99500.50
2018-01-15T16:53:06.085Z,99483.37
2018-01-15T16:58:07.407Z,99460.32
2018-01-15T17:03:08.756Z,99435.73
2018-01-15T17:08:10.099Z,99402.11
2018-01-15T17:13:11.560Z,99382.30
2018-01-15T17:18:13.678Z,99360.31
2018-01-15T17:23:15.035Z,99341.58
2018-01-15T17:28:16.401Z,99330.41
2018-01-15T17:33:17.829Z,99312.54
2018-01-15T17:38:19.164Z,99299.06
2018-01-15T17:43:20.482Z,99283.50
2018-01-15T17:48:21.934Z,99265.70
2018-01-15T17:53:23.452Z,99252.41
2018-01-15T17:58:24.861Z,99237.00
2018-01-15T18:03:26.260Z,99221.72
2018-01-15T18:08:27.630Z,99217.75
2018-01-15T18:13:28.988Z,99192.94
2018-01-15T18:18:30.375Z,99169.83
2018-01-15T18:23:31.729Z,99155.48
2018-01-15T18:28:33.040Z,99148.92
2018-01-15T18:33:35.102Z,99133.42
2018-01-15T18:38:36.667Z,99118.30
2018-01-15T18:43:37.981Z,99107.98
2018-01-15T18:48:39.323Z,99112.91
2018-01-15T18:53:41.444Z,99086.92
2018-01-15T18:58:42.847Z,99059.26
2018-01-15T19:03:44.163Z,99064.27
2018-01-15T19:08:45.795Z,99034.96
2018-01-15T19:13:47.883Z,99026.10
2018-01-15T19:18:49.323Z,98999.02
2018-01-15T19:23:50.667Z,98985.23
2018-01-15T19:28:52.928Z,98977.97
2018-01-15T19:33:54.344Z,98943.24
2018-01-15T19:38:57.154Z,98921.22
2018-01-15T19:44:01.439Z,98902.67
2018-01-15T19:49:08.909Z,98899.77
2018-01-15T19:54:17.078Z,98870.50
2018-01-15T19:59:24.379Z,98869.56
2018-01-15T20:04:31.730Z,98856.91
2018-01-15T20:09:41.082Z,98847.67
2018-01-15T20:14:42.484Z,98828.16
2018-01-15T20:19:45.396Z,98799.02
2018-01-15T20:24:46.751Z,98808.98
2018-01-15T20:29:48.121Z,98801.97
2018-01-15T20:34:49.542Z,98786.97
2018-01-15T20:39:51.064Z,98769.89
2018-01-15T20:44:52.468Z,98762.52
2018-01-15T20:49:54.797Z,98757.69
2018-01-15T20:54:56.187Z,98751.34
2018-01-15T20:59:57.558Z,98713.29
2018-01-15T21:04:59.709Z,98704.34
2018-01-15T21:10:01.962Z,98693.15
2018-01-15T21:15:04.310Z,98688.84
2018-01-15T21:20:06.331Z,98696.03
2018-01-15T21:25:08.865Z,98672.22
2018-01-15T21:30:11.109Z,98662.58
2018-01-15T21:35:12.992Z,98659.61
2018-01-15T21:40:15.981Z,98648.93
2018-01-15T21:45:18.352Z,98631.79
2018-01-15T21:50:27.367Z,98636.01
2018-01-15T21:55:29.531Z,98625.44
2018-01-15T22:00:30.927Z,98633.27
2018-01-15T22:05:32.840Z,98645.81
2018-01-15T22:10:35.047Z,98634.13
2018-01-15T22:15:37.625Z,98639.96
2018-01-15T22:20:40.019Z,98631.22
2018-01-15T22:25:48.662Z,98624.38
2018-01-15T22:30:51.558Z,98611.20
2018-01-15T22:35:52.899Z,98605.84
2018-01-15T22:40:55.137Z,98592.50
2018-01-15T22:45:57.803Z,98603.18
2018-01-15T22:50:59.872Z,98591.91
2018-01-15T22:56:01.346Z,98605.40
2018-01-15T23:01:03.507Z,98602.16
2018-01-15T23:06:06.173Z,98594.36
2018-01-15T23:11:08.375Z,98594.41
2018-01-15T23:16:10.496Z,98601.78
2018-01-15T23:21:11.847Z,98594.94
2018-01-15T23:26:13.151Z,98602.36
2018-01-15T23:31:14.467Z,98602.52
2018-01-15T23:36:15.975Z,98590.40
2018-01-15T23:41:17.292Z,98585.86
2018-01-15T23:46:19.403Z,98578.22
2018-01-15T23:51:21.502Z,98561.41
2018-01-15T23:56:22.805Z,98556.47
